Terminal Aerodrome Forecast
Issued by NWS Omaha/Valley, NE

Home | Current Version | Previous Version | Text Only | Print | Product List | Glossary On
Versions: 1 2 3 4 5 6 7 8 9 10 11 12 13 14 15 16
000
FTUS43 KOAX 181120
TAFOFK
TAF
KOFK 181120Z 1812/1912 15011KT P6SM SCT110 BKN250
     FM181500 17018G24KT P6SM SCT250
     FM181800 18022G30KT P6SM SCT040 SCT250
     FM190100 17015G23KT P6SM SCT250
     FM190600 17018KT P6SM SKC=

USA.gov is the U.S. government's official web portal to all federal, state and local government web resources and services.